createdAt,value
2018-12-11T00:12:01.606Z,93.34
2018-12-11T00:27:01.648Z,93.23
2018-12-11T00:43:01.601Z,93.55
2018-12-11T00:58:01.582Z,92.70
2018-12-11T01:03:02.521Z,92.70
2018-12-11T01:18:01.526Z,92.58
2018-12-11T01:23:01.537Z,92.58
2018-12-11T01:38:01.575Z,92.19
2018-12-11T01:53:01.526Z,92.20
2018-12-11T01:59:01.778Z,92.28
2018-12-11T02:09:01.626Z,91.85
2018-12-11T02:19:01.701Z,92.52
2018-12-11T02:35:01.486Z,91.38
2018-12-11T02:45:01.547Z,91.43
2018-12-11T03:00:01.611Z,91.14
2018-12-11T03:15:01.674Z,91.11
2018-12-11T03:20:01.527Z,91.11
2018-12-11T03:30:01.702Z,91.07
2018-12-11T03:40:01.626Z,91.08
2018-12-11T03:45:01.530Z,91.32
2018-12-11T03:55:01.506Z,90.76
2018-12-11T04:00:01.583Z,90.76
2018-12-11T04:15:01.576Z,89.98
2018-12-11T04:30:01.720Z,89.72
2018-12-11T04:46:01.659Z,89.64
2018-12-11T04:51:01.551Z,89.64
2018-12-11T05:06:01.567Z,89.05
2018-12-11T05:21:01.669Z,88.54
2018-12-11T05:36:01.756Z,87.82
2018-12-11T05:51:01.549Z,87.72
2018-12-11T06:06:01.586Z,86.95
2018-12-11T06:11:01.586Z,86.95
2018-12-11T06:26:01.450Z,87.33
2018-12-11T06:36:01.468Z,87.69
2018-12-11T06:46:01.472Z,88.57
2018-12-11T06:56:01.474Z,88.66
2018-12-11T07:07:06.656Z,88.68
2018-12-11T07:22:06.561Z,89.28
2018-12-11T07:32:01.472Z,89.46
2018-12-11T07:47:06.469Z,89.48
2018-12-11T08:02:01.504Z,89.67
2018-12-11T08:17:01.874Z,89.29
2018-12-11T08:32:01.480Z,89.16
2018-12-11T08:47:01.515Z,88.53
2018-12-11T08:52:01.485Z,88.53
2018-12-11T08:57:01.436Z,88.38
2018-12-11T09:07:01.450Z,87.65
2018-12-11T09:17:01.532Z,87.12
2018-12-11T09:27:01.486Z,86.94
2018-12-11T09:37:06.492Z,86.66
2018-12-11T09:48:01.435Z,86.30
2018-12-11T09:58:01.497Z,86.26
2018-12-11T10:08:01.546Z,86.24
2018-12-11T10:13:01.430Z,86.24
2018-12-11T10:23:01.501Z,86.82
2018-12-11T10:38:01.655Z,87.43
2018-12-11T10:43:01.649Z,87.43
2018-12-11T10:53:02.498Z,87.67
2018-12-11T11:03:01.614Z,88.10
2018-12-11T11:13:01.810Z,87.11
2018-12-11T11:18:01.610Z,87.99
2018-12-11T11:28:01.741Z,87.58
2018-12-11T11:44:01.555Z,88.40
2018-12-11T11:59:01.659Z,87.79
2018-12-11T12:04:01.658Z,88.19
2018-12-11T12:20:01.603Z,88.64
2018-12-11T12:30:01.676Z,88.69
2018-12-11T12:40:01.641Z,89.09
2018-12-11T12:45:01.603Z,88.74
2018-12-11T13:00:01.670Z,88.40
2018-12-11T13:11:01.657Z,89.17
2018-12-11T13:26:01.613Z,89.23
2018-12-11T13:36:01.804Z,88.56
2018-12-11T13:51:01.544Z,89.15
2018-12-11T14:06:01.777Z,89.50
2018-12-11T14:21:01.434Z,90.07
2018-12-11T14:26:04.266Z,90.50
2018-12-11T14:41:01.459Z,90.32
2018-12-11T14:56:01.442Z,89.94
2018-12-11T15:11:02.084Z,89.64
2018-12-11T15:26:01.454Z,86.19
2018-12-11T15:41:02.320Z,86.19
2018-12-11T15:56:01.435Z,85.71
2018-12-11T16:06:01.650Z,86.11
2018-12-11T16:21:01.600Z,86.16
2018-12-11T16:36:01.726Z,87.08
2018-12-11T16:46:01.493Z,86.81
2018-12-11T17:01:01.542Z,86.92
2018-12-11T17:16:01.698Z,86.18
2018-12-11T17:32:01.662Z,84.60
2018-12-11T17:47:01.601Z,85.28
2018-12-11T18:02:01.551Z,86.23
2018-12-11T18:17:01.625Z,87.87
2018-12-11T18:32:01.613Z,88.00
2018-12-11T18:48:01.635Z,86.62
2018-12-11T18:53:01.565Z,86.62
2018-12-11T19:08:01.690Z,87.26
2018-12-11T19:23:01.484Z,87.94
2018-12-11T19:38:02.542Z,88.14
2018-12-11T19:53:01.571Z,88.33
2018-12-11T20:08:01.530Z,90.37
2018-12-11T20:23:02.673Z,91.75
2018-12-11T20:28:01.529Z,92.85
2018-12-11T20:43:01.650Z,94.12
2018-12-11T20:58:01.634Z,95.77
2018-12-11T21:13:01.539Z,96.24
2018-12-11T21:18:01.567Z,96.62
2018-12-11T21:33:01.723Z,96.65
2018-12-11T21:48:01.626Z,96.74
2018-12-11T21:53:01.667Z,96.74
2018-12-11T22:08:01.662Z,95.93
2018-12-11T22:13:01.577Z,95.93
2018-12-11T22:28:01.591Z,95.15
2018-12-11T22:38:01.528Z,94.33
2018-12-11T22:53:01.612Z,93.79
2018-12-11T23:08:02.472Z,91.91
2018-12-11T23:13:01.665Z,91.91
2018-12-11T23:28:01.629Z,92.09
2018-12-11T23:43:01.611Z,91.52
2018-12-11T23:58:01.566Z,91.21
